Time;durP1;ratioP1;P1;durP2;ratioP2;P2;SDS_P1;SDS_P2;PMS_P1;PMS_P2;Temp;Humidity;BMP_temperature;BMP_pressure;BME280_temperature;BME280_humidity;BME280_pressure;Samples;Min_cycle;Max_cycle;Signal;HPM_P1;HPM_P2
2021/04/12 00:00:23;;;;;;;4.05;0.63;;;2.50;99.90;;;;;;5063875;28;20116;-71
2021/04/12 00:03:15;;;;;;;0.73;0.43;;;2.40;99.90;;;;;;5063833;28;20041;-70
2021/04/12 00:05:56;;;;;;;0.50;0.30;;;2.50;99.90;;;;;;5064230;28;20064;-73
2021/04/12 00:09:01;;;;;;;6.72;0.57;;;2.40;99.90;;;;;;5065276;28;20029;-72
2021/04/12 00:11:40;;;;;;;1.17;0.55;;;2.40;99.90;;;;;;5064865;28;20033;-72
2021/04/12 00:14:10;;;;;;;6.65;0.80;;;2.40;99.90;;;;;;5064772;28;20104;-71
2021/04/12 00:16:42;;;;;;;1.08;0.60;;;2.40;99.90;;;;;;5063424;28;20029;-73
2021/04/12 00:19:20;;;;;;;0.20;0.20;;;2.40;99.90;;;;;;5064679;28;20076;-72
2021/04/12 00:21:54;;;;;;;1.55;0.45;;;2.40;99.90;;;;;;5064606;28;20037;-70
2021/04/12 00:24:23;;;;;;;1.55;0.50;;;2.30;99.90;;;;;;5065115;28;20025;-73
2021/04/12 00:27:07;;;;;;;2.72;0.57;;;2.30;99.90;;;;;;5065062;28;20025;-72
2021/04/12 00:29:40;;;;;;;3.45;0.60;;;2.30;99.90;;;;;;5065367;28;20508;-73
2021/04/12 00:32:26;;;;;;;2.53;0.80;;;2.30;99.90;;;;;;5064788;28;20114;-74
2021/04/12 00:35:02;;;;;;;5.38;0.82;;;2.30;99.90;;;;;;5064797;28;20032;-73
2021/04/12 00:37:35;;;;;;;1.25;0.68;;;2.30;99.90;;;;;;5064804;28;20037;-71
2021/04/12 00:40:37;;;;;;;1.27;0.70;;;2.30;99.90;;;;;;5064837;28;20025;-73
2021/04/12 00:43:24;;;;;;;2.65;0.60;;;2.30;99.90;;;;;;5071043;28;20129;-71
2021/04/12 00:45:59;;;;;;;0.55;0.30;;;2.30;99.90;;;;;;5071334;28;20421;-72
2021/04/12 00:48:36;;;;;;;4.78;1.23;;;2.30;99.90;;;;;;5070049;28;20037;-72
2021/04/12 00:51:14;;;;;;;1.20;0.80;;;2.20;99.90;;;;;;5071066;28;20089;-73
2021/04/12 00:54:17;;;;;;;4.55;1.42;;;2.20;99.90;;;;;;5071118;28;20048;-72
2021/04/12 00:56:49;;;;;;;3.80;0.98;;;2.20;99.90;;;;;;5071032;28;20041;-73
2021/04/12 00:59:33;;;;;;;3.17;1.17;;;2.20;99.90;;;;;;5071220;28;20117;-73
2021/04/12 01:02:26;;;;;;;2.58;1.40;;;2.20;99.90;;;;;;5070825;28;20086;-73
2021/04/12 01:05:08;;;;;;;10.18;1.48;;;2.20;99.90;;;;;;5071071;28;20025;-72
2021/04/12 01:08:09;;;;;;;4.50;1.67;;;2.20;99.90;;;;;;5070891;28;20029;-73
2021/04/12 01:11:00;;;;;;;2.65;1.63;;;2.20;99.90;;;;;;5070909;28;20025;-71
2021/04/12 01:13:47;;;;;;;5.18;0.68;;;2.20;99.90;;;;;;5069726;28;20112;-71
2021/04/12 01:17:05;;;;;;;2.40;1.13;;;2.20;99.90;;;;;;5069650;28;20386;-72
2021/04/12 01:19:36;;;;;;;5.82;1.23;;;2.20;99.90;;;;;;5068285;28;20057;-72
2021/04/12 01:22:29;;;;;;;10.23;1.25;;;2.10;99.90;;;;;;5068524;28;20041;-71
2021/04/12 01:25:19;;;;;;;2.30;1.58;;;2.10;99.90;;;;;;5070269;28;20087;-71
2021/04/12 01:27:54;;;;;;;11.13;1.60;;;2.10;99.90;;;;;;5069593;28;20440;-74
2021/04/12 01:30:44;;;;;;;1.63;0.80;;;2.10;99.90;;;;;;5070867;28;20525;-73
2021/04/12 01:33:25;;;;;;;2.20;1.10;;;2.10;99.90;;;;;;5070713;28;20029;-71
2021/04/12 01:36:28;;;;;;;2.55;1.38;;;2.10;99.90;;;;;;5070946;28;20032;-73
2021/04/12 01:39:02;;;;;;;3.97;1.17;;;2.10;99.90;;;;;;5070838;28;20045;-74
2021/04/12 01:41:34;;;;;;;;;;;2.10;99.90;;;;;;5071079;28;20039;-71
2021/04/12 01:44:22;;;;;;;3.10;1.48;;;2.10;99.90;;;;;;5070512;28;20280;-72
2021/04/12 01:47:00;;;;;;;8.32;1.55;;;2.00;99.90;;;;;;5070852;28;20024;-71
2021/04/12 01:49:39;;;;;;;5.55;1.40;;;2.10;99.90;;;;;;5070607;28;20116;-73
2021/04/12 01:52:10;;;;;;;5.45;1.23;;;2.10;99.90;;;;;;5067676;28;20112;-72
2021/04/12 01:55:17;;;;;;;1.63;1.15;;;2.10;99.90;;;;;;5067171;28;20029;-71
2021/04/12 01:58:01;;;;;;;3.45;1.13;;;2.00;99.90;;;;;;5065819;28;20053;-72
2021/04/12 02:00:54;;;;;;;6.20;1.67;;;2.00;99.90;;;;;;5065862;28;20051;-72
2021/04/12 02:03:54;;;;;;;2.50;1.33;;;2.00;99.90;;;;;;5067259;28;20025;-74
2021/04/12 02:06:35;;;;;;;2.45;1.10;;;2.00;99.90;;;;;;5067458;28;20033;-72
2021/04/12 02:09:04;;;;;;;3.03;1.08;;;2.00;99.90;;;;;;5067173;28;20033;-71
2021/04/12 02:11:32;;;;;;;2.65;1.30;;;2.00;99.90;;;;;;5067160;28;20091;-71
2021/04/12 02:14:07;;;;;;;3.85;1.40;;;2.00;99.90;;;;;;5067000;28;20085;-70
2021/04/12 02:16:52;;;;;;;3.28;1.70;;;2.00;99.90;;;;;;5066950;28;20070;-72
2021/04/12 02:19:57;;;;;;;3.05;1.55;;;1.90;99.90;;;;;;5067099;28;20040;-72
2021/04/12 02:22:28;;;;;;;;;;;2.00;99.90;;;;;;5066604;28;20312;-72
2021/04/12 02:25:31;;;;;;;3.83;1.60;;;1.90;99.90;;;;;;5066956;28;19909;-71
2021/04/12 02:28:28;;;;;;;2.55;1.23;;;1.90;99.90;;;;;;5066603;28;20064;-70
2021/04/12 02:31:21;;;;;;;4.15;1.73;;;1.90;99.90;;;;;;5065600;28;20068;-73
2021/04/12 02:33:56;;;;;;;1.75;0.73;;;1.80;99.90;;;;;;5066998;28;20059;-72
2021/04/12 02:36:28;;;;;;;1.52;1.05;;;1.80;99.90;;;;;;5067030;28;20054;-70
2021/04/12 02:39:04;;;;;;;3.97;1.60;;;1.80;99.90;;;;;;5067372;28;20029;-70
2021/04/12 02:41:53;;;;;;;8.43;1.33;;;1.80;99.90;;;;;;5066824;28;20029;-70
2021/04/12 02:44:40;;;;;;;2.35;1.00;;;1.80;99.90;;;;;;5066719;28;20029;-72
2021/04/12 02:47:18;;;;;;;7.00;1.38;;;1.80;99.90;;;;;;5066333;28;20084;-70
2021/04/12 02:50:08;;;;;;;2.03;0.90;;;1.80;99.90;;;;;;5066528;28;20037;-69
2021/04/12 02:53:01;;;;;;;4.57;1.13;;;1.80;99.90;;;;;;5066297;28;20025;-71
2021/04/12 02:55:55;;;;;;;1.90;1.13;;;1.70;99.90;;;;;;5066213;28;20037;-71
2021/04/12 02:58:45;;;;;;;3.10;1.35;;;1.70;99.90;;;;;;5066563;28;20063;-70
2021/04/12 03:01:37;;;;;;;2.00;1.23;;;1.70;99.90;;;;;;5066001;28;20032;-71
2021/04/12 03:04:27;;;;;;;1.85;1.23;;;1.70;99.90;;;;;;5065341;28;20532;-70
2021/04/12 03:07:12;;;;;;;10.85;1.45;;;1.70;99.90;;;;;;5066141;28;20032;-73
2021/04/12 03:10:10;;;;;;;1.30;0.95;;;1.60;99.90;;;;;;5066095;28;20401;-69
2021/04/12 03:13:10;;;;;;;2.53;1.08;;;1.60;99.90;;;;;;5064436;28;20037;-71
2021/04/12 03:16:05;;;;;;;6.22;1.48;;;1.60;99.90;;;;;;5065708;28;20021;-70
2021/04/12 03:19:09;;;;;;;6.07;1.08;;;1.60;99.90;;;;;;5064467;28;20055;-71
2021/04/12 03:22:07;;;;;;;1.17;0.93;;;1.60;99.90;;;;;;5065585;28;20039;-69
2021/04/12 03:24:51;;;;;;;2.05;1.40;;;1.60;99.90;;;;;;5065539;28;20141;-70
2021/04/12 03:27:43;;;;;;;2.85;1.30;;;1.60;99.90;;;;;;5066045;28;20033;-70
2021/04/12 03:30:25;;;;;;;2.15;1.15;;;1.60;99.90;;;;;;5065261;28;20041;-70
2021/04/12 03:33:04;;;;;;;7.53;1.58;;;1.60;99.90;;;;;;5065837;28;20029;-71
2021/04/12 03:36:09;;;;;;;2.20;1.17;;;1.60;99.90;;;;;;5065357;28;20084;-70
2021/04/12 03:39:01;;;;;;;2.65;1.45;;;1.50;99.90;;;;;;5065371;28;20029;-70
2021/04/12 03:42:12;;;;;;;2.47;1.02;;;1.50;99.90;;;;;;5065216;28;20025;-71
2021/04/12 03:45:02;;;;;;;4.57;1.40;;;1.50;99.90;;;;;;5064527;28;20059;-71
2021/04/12 03:47:44;;;;;;;1.67;1.13;;;1.40;99.90;;;;;;5065100;28;20042;-71
2021/04/12 03:50:28;;;;;;;2.72;1.38;;;1.40;99.90;;;;;;5065197;28;20029;-70
2021/04/12 03:53:02;;;;;;;;;;;1.40;99.90;;;;;;5065962;28;20049;-70
2021/04/12 03:56:03;;;;;;;2.13;1.25;;;1.40;99.90;;;;;;5065113;28;19908;-71
2021/04/12 03:58:44;;;;;;;9.80;1.58;;;1.40;99.90;;;;;;5065191;28;20072;-70
2021/04/12 04:01:30;;;;;;;3.08;2.00;;;1.40;99.90;;;;;;5065139;28;20039;-70
2021/04/12 04:04:31;;;;;;;4.10;1.52;;;1.40;99.90;;;;;;5065069;28;20045;-71
2021/04/12 04:07:19;;;;;;;4.97;1.88;;;1.40;99.90;;;;;;5064889;28;20036;-71
2021/04/12 04:10:01;;;;;;;3.47;1.70;;;1.40;99.90;;;;;;5064949;28;20048;-71
2021/04/12 04:13:04;;;;;;;2.63;1.33;;;1.40;99.90;;;;;;5064803;28;20032;-72
2021/04/12 04:15:55;;;;;;;9.65;2.10;;;1.40;99.90;;;;;;5064285;28;20036;-71
2021/04/12 04:18:34;;;;;;;3.40;1.73;;;1.30;99.90;;;;;;5063503;28;20497;-71
2021/04/12 04:21:12;;;;;;;4.47;1.85;;;1.30;99.90;;;;;;5063188;28;20032;-70
2021/04/12 04:24:08;;;;;;;1.75;1.27;;;1.30;99.90;;;;;;5064584;28;20119;-70
2021/04/12 04:26:53;;;;;;;4.95;1.98;;;1.30;99.90;;;;;;5064764;28;20051;-72
2021/04/12 04:29:37;;;;;;;;;;;1.30;99.90;;;;;;5065193;28;20032;-72
2021/04/12 04:32:30;;;;;;;4.25;2.30;;;1.30;99.90;;;;;;5063033;28;19928;-69
2021/04/12 04:35:04;;;;;;;11.48;2.03;;;1.30;99.90;;;;;;5064390;28;20029;-71
2021/04/12 04:37:49;;;;;;;6.22;2.78;;;1.30;99.90;;;;;;5064467;28;20039;-72
2021/04/12 04:40:37;;;;;;;2.17;1.50;;;1.30;99.90;;;;;;5064807;28;20029;-72
2021/04/12 04:43:05;;;;;;;4.03;2.38;;;1.30;99.90;;;;;;5064409;28;20098;-73
2021/04/12 04:45:55;;;;;;;4.95;2.30;;;1.30;99.90;;;;;;5062912;28;20112;-72
2021/04/12 04:48:39;;;;;;;8.27;2.22;;;1.30;99.90;;;;;;5064417;28;20021;-69
2021/04/12 04:51:37;;;;;;;3.58;2.38;;;1.30;99.90;;;;;;5064006;28;20029;-71
2021/04/12 04:54:21;;;;;;;2.63;1.55;;;1.40;99.90;;;;;;5063754;28;20391;-71
2021/04/12 04:57:02;;;;;;;;;;;1.40;99.90;;;;;;5064584;28;20129;-71
2021/04/12 05:00:05;;;;;;;3.85;1.70;;;1.40;99.90;;;;;;5063994;28;19904;-71
2021/04/12 05:03:08;;;;;;;2.75;2.03;;;1.40;99.90;;;;;;5063963;28;20025;-70
2021/04/12 05:05:37;;;;;;;4.30;2.15;;;1.40;99.90;;;;;;5062383;28;20083;-71
2021/04/12 05:08:49;;;;;;;6.65;2.22;;;1.40;99.90;;;;;;5057396;28;20029;-75
2021/04/12 05:11:43;;;;;;;10.23;1.85;;;1.40;99.90;;;;;;5028390;28;20034;-72
2021/04/12 05:14:28;;;;;;;18.40;2.55;;;1.50;99.90;;;;;;5024969;28;20039;-73
2021/04/12 05:17:30;;;;;;;4.15;1.75;;;1.50;99.90;;;;;;5064028;28;20021;-72
2021/04/12 05:20:23;;;;;;;4.10;2.03;;;1.50;99.90;;;;;;5063218;28;20107;-72
2021/04/12 05:23:22;;;;;;;4.68;2.13;;;1.50;99.90;;;;;;5063818;28;20041;-72
2021/04/12 05:25:56;;;;;;;8.00;2.45;;;1.50;99.90;;;;;;5064017;28;20033;-72
2021/04/12 05:28:43;;;;;;;7.47;2.40;;;1.50;99.90;;;;;;5051798;28;20075;-72
2021/04/12 05:31:23;;;;;;;6.97;2.30;;;1.50;99.90;;;;;;5047684;28;20401;-72
2021/04/12 05:34:14;;;;;;;4.63;1.85;;;1.50;99.90;;;;;;5047559;28;20101;-72
2021/04/12 05:37:17;;;;;;;7.90;2.08;;;1.60;99.90;;;;;;5047705;28;20083;-72
2021/04/12 05:40:08;;;;;;;10.68;2.25;;;1.60;99.90;;;;;;5048885;28;20079;-70
2021/04/12 05:43:04;;;;;;;2.50;1.73;;;1.60;99.90;;;;;;5047284;28;20112;-72
2021/04/12 05:45:39;;;;;;;3.40;2.05;;;1.70;99.90;;;;;;5066592;28;20021;-72
2021/04/12 05:48:39;;;;;;;3.10;1.60;;;1.80;99.90;;;;;;5049695;28;20096;-72
2021/04/12 05:51:36;;;;;;;4.30;2.25;;;1.80;99.90;;;;;;5050611;28;20473;-71
2021/04/12 05:54:20;;;;;;;12.57;1.73;;;1.80;99.90;;;;;;5053995;28;20044;-71
2021/04/12 05:57:04;;;;;;;4.55;2.00;;;1.80;99.90;;;;;;5058190;28;20029;-71
2021/04/12 05:59:36;;;;;;;1.98;1.25;;;1.90;99.90;;;;;;5065570;28;20116;-72
2021/04/12 06:02:16;;;;;;;3.83;2.15;;;2.00;99.90;;;;;;5066872;28;20055;-72
2021/04/12 06:04:50;;;;;;;2.25;1.33;;;2.00;99.90;;;;;;5067028;28;20453;-70
2021/04/12 06:07:39;;;;;;;3.95;2.33;;;2.00;99.90;;;;;;5066955;28;20029;-71
2021/04/12 06:10:16;;;;;;;5.80;1.70;;;2.10;99.90;;;;;;5065590;28;20159;-72
2021/04/12 06:13:19;;;;;;;2.15;1.40;;;2.20;99.90;;;;;;5066619;28;20493;-70
2021/04/12 06:16:22;;;;;;;4.28;1.73;;;2.20;99.90;;;;;;5066831;28;20501;-73
2021/04/12 06:19:06;;;;;;;3.38;1.90;;;2.30;99.90;;;;;;5066563;28;20049;-74
2021/04/12 06:22:09;;;;;;;17.20;2.20;;;2.40;99.90;;;;;;5066879;28;20057;-72
2021/04/12 06:24:40;;;;;;;4.93;1.40;;;2.50;99.90;;;;;;5066765;28;20480;-71
2021/04/12 06:27:33;;;;;;;2.85;1.70;;;2.50;99.90;;;;;;5066435;28;20067;-73
2021/04/12 06:30:14;;;;;;;4.10;1.48;;;2.60;99.90;;;;;;5066339;28;20048;-74
2021/04/12 06:32:48;;;;;;;2.25;1.10;;;2.70;99.90;;;;;;5066831;28;20088;-73
2021/04/12 06:35:31;;;;;;;2.60;1.08;;;2.70;99.90;;;;;;5066747;28;20025;-74
2021/04/12 06:37:56;;;;;;;2.53;1.35;;;2.70;99.90;;;;;;5066442;28;20445;-73
2021/04/12 06:40:31;;;;;;;2.80;1.52;;;2.80;99.90;;;;;;5065900;28;20033;-73
2021/04/12 06:43:49;;;;;;;5.80;2.10;;;2.80;99.90;;;;;;5066526;28;20062;-70
2021/04/12 06:46:21;;;;;;;3.20;1.67;;;2.80;99.90;;;;;;5063622;28;20073;-70
2021/04/12 06:49:09;;;;;;;8.60;1.50;;;2.90;99.90;;;;;;5060760;28;20059;-72
2021/04/12 06:52:26;;;;;;;1.60;1.38;;;2.90;99.90;;;;;;5045611;28;20034;-72
2021/04/12 06:55:17;;;;;;;2.80;1.48;;;2.90;99.90;;;;;;5073303;28;20037;-72
2021/04/12 06:57:58;;;;;;;3.78;1.83;;;3.00;99.90;;;;;;5064593;28;20044;-72
2021/04/12 07:00:45;;;;;;;2.28;1.48;;;3.10;99.90;;;;;;5065948;28;20040;-71
2021/04/12 07:03:49;;;;;;;1.75;1.02;;;3.10;99.90;;;;;;5065784;28;20059;-72
2021/04/12 07:06:39;;;;;;;3.15;1.52;;;3.20;99.90;;;;;;5066049;28;20449;-72
2021/04/12 07:09:38;;;;;;;1.58;1.10;;;3.30;99.90;;;;;;5064591;28;20029;-71
2021/04/12 07:12:28;;;;;;;11.68;1.42;;;3.30;99.90;;;;;;5066069;28;20056;-71
2021/04/12 07:15:30;;;;;;;4.13;1.33;;;3.40;99.90;;;;;;5065788;28;20040;-73
2021/04/12 07:18:22;;;;;;;4.35;1.45;;;3.60;99.90;;;;;;5065152;28;20028;-72
2021/04/12 07:20:51;;;;;;;2.92;1.40;;;3.70;99.90;;;;;;5064574;28;20045;-72
2021/04/12 07:23:54;;;;;;;4.53;1.30;;;3.80;99.90;;;;;;5065676;28;20090;-73
2021/04/12 07:26:51;;;;;;;5.70;1.30;;;4.00;99.90;;;;;;5062809;28;20087;-73
2021/04/12 07:29:42;;;;;;;2.45;1.40;;;4.10;99.90;;;;;;5065781;28;20037;-72
2021/04/12 07:32:19;;;;;;;3.33;1.55;;;4.30;99.90;;;;;;5048718;28;20428;-73
2021/04/12 07:35:03;;;;;;;6.10;1.13;;;4.40;99.90;;;;;;5045514;28;20414;-71
2021/04/12 07:37:55;;;;;;;1.50;1.20;;;4.50;99.90;;;;;;5048905;28;20032;-72
2021/04/12 07:41:12;;;;;;;4.20;2.20;;;4.70;99.90;;;;;;5065361;28;20320;-73
2021/04/12 07:44:33;;;;;;;5.53;2.22;;;4.90;99.90;;;;;;5063416;28;20079;-72
2021/04/12 07:47:41;;;;;;;4.20;1.25;;;5.10;99.90;;;;;;5065102;28;20058;-72
2021/04/12 07:50:24;;;;;;;2.25;1.55;;;5.20;99.90;;;;;;5064006;28;20112;-73
2021/04/12 07:53:17;;;;;;;3.55;1.15;;;5.20;99.90;;;;;;5065306;28;20534;-72
2021/04/12 07:56:13;;;;;;;8.52;1.40;;;5.40;99.90;;;;;;5064650;28;20029;-72
2021/04/12 07:58:59;;;;;;;4.05;1.50;;;5.50;99.90;;;;;;5064966;28;20032;-73
2021/04/12 08:01:58;;;;;;;7.28;1.92;;;5.60;99.90;;;;;;5064889;28;20051;-71
2021/04/12 08:04:52;;;;;;;4.60;1.48;;;5.70;99.90;;;;;;5064667;28;20033;-72
2021/04/12 08:07:59;;;;;;;1.20;0.63;;;5.80;99.90;;;;;;5064961;28;20025;-73
2021/04/12 08:10:37;;;;;;;8.57;1.38;;;5.90;99.90;;;;;;5064495;28;20063;-71
2021/04/12 08:13:03;;;;;;;2.45;0.95;;;6.00;99.90;;;;;;5064928;28;20040;-73
2021/04/12 08:16:02;;;;;;;2.33;1.25;;;6.10;99.90;;;;;;5064539;28;20025;-73
2021/04/12 08:18:34;;;;;;;1.20;0.68;;;6.20;99.90;;;;;;5062476;28;20105;-73
2021/04/12 08:21:05;;;;;;;3.03;1.45;;;6.50;99.90;;;;;;5064394;28;20037;-73
2021/04/12 08:23:52;;;;;;;0.98;0.70;;;6.50;99.90;;;;;;5064340;28;20037;-74
2021/04/12 08:26:47;;;;;;;1.85;1.05;;;6.60;99.90;;;;;;5064793;28;20033;-72
2021/04/12 08:29:43;;;;;;;1.88;1.08;;;6.60;99.90;;;;;;5064469;28;20059;-72
2021/04/12 08:32:59;;;;;;;2.53;0.82;;;6.60;99.90;;;;;;5064385;28;20040;-74
2021/04/12 08:35:40;;;;;;;2.53;0.73;;;6.70;99.90;;;;;;5061828;28;20033;-70
2021/04/12 08:38:14;;;;;;;3.20;0.68;;;6.50;99.90;;;;;;5062375;28;20052;-72
2021/04/12 08:40:58;;;;;;;;;;;6.30;99.90;;;;;;5064277;28;20033;-70
2021/04/12 08:43:42;;;;;;;6.47;1.08;;;6.20;99.90;;;;;;5063892;28;19990;-74
2021/04/12 08:46:30;;;;;;;5.90;1.20;;;6.40;99.90;;;;;;5062404;28;20145;-73
2021/04/12 08:49:11;;;;;;;1.85;0.80;;;6.90;99.90;;;;;;5064002;28;20025;-72
2021/04/12 08:51:55;;;;;;;0.63;0.52;;;7.40;99.90;;;;;;5064186;28;20096;-72
2021/04/12 08:54:39;;;;;;;0.32;0.28;;;7.70;99.90;;;;;;5063382;28;20025;-73
2021/04/12 08:57:28;;;;;;;2.93;1.13;;;7.80;99.90;;;;;;5050002;28;20037;-73
2021/04/12 09:00:38;;;;;;;6.07;1.05;;;7.60;99.90;;;;;;5054795;28;20119;-73
2021/04/12 09:03:18;;;;;;;1.45;0.68;;;7.70;99.90;;;;;;5063700;28;20068;-72
2021/04/12 09:05:55;;;;;;;0.63;0.57;;;7.80;99.90;;;;;;5048615;28;20048;-73
2021/04/12 09:08:44;;;;;;;0.28;0.25;;;7.90;99.90;;;;;;5067538;28;20495;-74
2021/04/12 09:11:37;;;;;;;0.20;0.15;;;8.20;99.90;;;;;;5065843;28;20100;-72
2021/04/12 09:14:40;;;;;;;6.85;0.50;;;8.50;99.90;;;;;;5047378;28;20087;-73
2021/04/12 09:17:34;;;;;;;1.55;0.28;;;8.50;99.90;;;;;;5067076;28;20029;-74
2021/04/12 09:20:33;;;;;;;1.75;0.68;;;8.30;99.90;;;;;;5063467;28;20045;-75
2021/04/12 09:23:20;;;;;;;0.95;0.40;;;8.10;99.90;;;;;;5064337;28;20040;-73
2021/04/12 09:26:05;;;;;;;7.63;1.08;;;8.00;99.90;;;;;;5067542;28;20060;-72
2021/04/12 09:28:30;;;;;;;;;;;8.60;99.90;;;;;;5065918;28;20041;-75
2021/04/12 09:31:14;;;;;;;0.52;0.43;;;8.90;99.90;;;;;;5047741;28;19905;-73
2021/04/12 09:34:17;;;;;;;3.83;0.33;;;8.90;99.90;;;;;;5054582;28;20029;-72
2021/04/12 09:37:04;;;;;;;5.20;0.35;;;8.70;99.90;;;;;;5045745;28;20105;-72
2021/04/12 09:40:03;;;;;;;1.80;0.70;;;8.50;99.90;;;;;;5025355;28;20065;-71
2021/04/12 09:43:05;;;;;;;1.35;0.50;;;8.30;99.90;;;;;;5025586;28;20280;-70
2021/04/12 09:46:08;;;;;;;1.65;0.60;;;7.90;99.90;;;;;;5026608;28;20026;-73
2021/04/12 09:49:19;;;;;;;0.00;0.00;;;7.70;99.90;;;;;;5041769;28;20041;-72
2021/04/12 09:51:59;;;;;;;6.05;0.60;;;7.40;99.90;;;;;;5026821;28;20046;-72
2021/04/12 09:54:27;;;;;;;0.63;0.30;;;7.30;99.90;;;;;;5025474;28;20034;-75
2021/04/12 09:57:31;;;;;;;0.30;0.30;;;7.30;99.90;;;;;;5026462;28;20056;-73
2021/04/12 09:59:56;;;;;;;8.95;0.45;;;7.40;99.90;;;;;;5025856;28;20049;-73
2021/04/12 10:02:52;;;;;;;0.90;0.32;;;7.40;99.90;;;;;;5046152;28;20044;-73
2021/04/12 10:06:09;;;;;;;2.95;0.50;;;7.50;99.90;;;;;;5055412;28;20041;-74
2021/04/12 10:08:59;;;;;;;7.93;0.70;;;7.70;99.90;;;;;;5046339;28;20055;-72
2021/04/12 10:11:46;;;;;;;5.13;0.63;;;8.30;99.90;;;;;;5054769;28;20103;-70
2021/04/12 10:14:27;;;;;;;0.52;0.32;;;8.50;99.90;;;;;;5064384;28;20032;-70
2021/04/12 10:17:36;;;;;;;3.88;0.85;;;8.60;99.90;;;;;;5065027;28;20036;-72
2021/04/12 10:20:08;;;;;;;0.50;0.30;;;8.50;99.90;;;;;;5062394;28;20152;-76
2021/04/12 10:23:10;;;;;;;0.82;0.52;;;8.50;99.90;;;;;;5065826;28;20044;-72
2021/04/12 10:25:48;;;;;;;0.77;0.45;;;8.30;99.90;;;;;;5043971;28;20137;-72
2021/04/12 10:28:39;;;;;;;1.52;0.57;;;8.30;99.90;;;;;;5046008;28;20056;-71
2021/04/12 10:31:27;;;;;;;5.28;0.63;;;8.30;99.90;;;;;;5045924;28;20056;-72
2021/04/12 10:33:53;;;;;;;0.90;0.30;;;8.10;99.90;;;;;;5045612;28;20036;-73
2021/04/12 10:36:28;;;;;;;1.58;0.52;;;7.80;99.90;;;;;;5045732;28;20025;-73
2021/04/12 10:39:04;;;;;;;2.50;0.52;;;7.80;99.90;;;;;;5044921;28;20034;-72
2021/04/12 10:41:49;;;;;;;2.75;0.40;;;7.60;99.90;;;;;;5045103;28;20079;-74
2021/04/12 10:44:34;;;;;;;0.50;0.25;;;7.70;99.90;;;;;;5048433;28;20071;-72
2021/04/12 10:47:04;;;;;;;;;;;7.90;99.90;;;;;;5066137;28;20025;-71
2021/04/12 10:49:54;;;;;;;5.70;0.55;;;8.20;99.90;;;;;;5065483;28;19905;-72
2021/04/12 10:52:38;;;;;;;0.57;0.30;;;8.70;99.90;;;;;;5050992;28;20040;-72
2021/04/12 10:55:23;;;;;;;0.30;0.25;;;9.40;99.90;;;;;;5045823;28;20085;-76
2021/04/12 10:58:11;;;;;;;0.13;0.13;;;9.90;99.90;;;;;;5045139;28;20454;-74
2021/04/12 11:00:59;;;;;;;0.38;0.20;;;10.40;99.90;;;;;;5047598;28;20033;-72
2021/04/12 11:03:38;;;;;;;0.10;0.10;;;11.00;99.90;;;;;;5065371;28;20041;-74
2021/04/12 11:06:12;;;;;;;0.63;0.32;;;11.20;99.90;;;;;;5065379;28;20078;-73
2021/04/12 11:08:44;;;;;;;;;;;11.60;99.90;;;;;;5065600;28;20602;-74
2021/04/12 11:11:22;;;;;;;0.98;0.35;;;11.80;99.60;;;;;;5065229;28;20025;-74
2021/04/12 11:14:05;;;;;;;2.47;0.82;;;11.80;98.10;;;;;;5065925;28;20027;-73
2021/04/12 11:16:49;;;;;;;1.13;0.30;;;11.80;96.40;;;;;;5045827;28;20095;-72
2021/04/12 11:19:35;;;;;;;2.40;0.68;;;12.10;98.10;;;;;;5045077;28;20053;-72
2021/04/12 11:22:27;;;;;;;0.75;0.45;;;12.40;99.30;;;;;;5045091;28;20029;-72
2021/04/12 11:25:07;;;;;;;3.35;0.88;;;12.80;96.50;;;;;;5043374;28;20052;-71
2021/04/12 11:27:52;;;;;;;1.02;0.35;;;12.80;94.70;;;;;;5044885;28;20056;-72
2021/04/12 11:30:55;;;;;;;0.55;0.35;;;12.90;94.50;;;;;;5045008;28;20090;-71
2021/04/12 11:33:44;;;;;;;2.45;0.55;;;12.70;90.80;;;;;;5041513;28;20064;-72
2021/04/12 11:36:22;;;;;;;1.90;1.13;;;13.00;91.60;;;;;;5042041;28;20130;-72
2021/04/12 11:38:53;;;;;;;0.43;0.20;;;12.70;91.80;;;;;;5042872;28;20025;-73
2021/04/12 11:41:27;;;;;;;0.25;0.25;;;12.70;89.80;;;;;;5043555;28;20033;-73
2021/04/12 11:43:57;;;;;;;1.55;0.40;;;12.60;87.80;;;;;;5042849;28;20136;-74
2021/04/12 11:46:40;;;;;;;0.60;0.30;;;12.80;93.80;;;;;;5040719;28;20123;-72
2021/04/12 11:49:27;;;;;;;0.50;0.30;;;13.00;90.10;;;;;;5040558;28;20025;-75
2021/04/12 11:52:15;;;;;;;0.75;0.35;;;13.10;90.20;;;;;;5042714;28;20034;-75
2021/04/12 11:55:05;;;;;;;0.40;0.30;;;12.60;87.30;;;;;;5043421;28;20071;-72
2021/04/12 11:57:44;;;;;;;1.85;0.60;;;11.90;90.50;;;;;;5043498;28;20025;-74
2021/04/12 12:00:26;;;;;;;2.47;0.40;;;10.90;91.60;;;;;;5043200;28;20612;-74
2021/04/12 12:03:17;;;;;;;0.35;0.20;;;10.50;93.20;;;;;;5043637;28;20064;-76
2021/04/12 12:06:06;;;;;;;7.40;0.30;;;10.70;94.20;;;;;;5043682;28;20029;-72
2021/04/12 12:09:10;;;;;;;0.75;0.30;;;11.20;92.60;;;;;;5043385;28;20025;-71
2021/04/12 12:12:06;;;;;;;2.33;0.40;;;11.90;92.10;;;;;;5041885;28;20120;-70
2021/04/12 12:14:43;;;;;;;1.95;0.20;;;12.00;87.70;;;;;;5041981;28;20470;-72
2021/04/12 12:17:34;;;;;;;1.27;0.30;;;12.00;83.90;;;;;;5043160;28;20091;-72
2021/04/12 12:20:07;;;;;;;2.47;0.38;;;11.90;84.70;;;;;;5042827;28;20045;-73
2021/04/12 12:22:51;;;;;;;0.93;0.50;;;12.20;83.10;;;;;;5041850;28;20064;-72
2021/04/12 12:25:23;;;;;;;3.13;0.40;;;12.60;89.60;;;;;;5043425;28;20053;-75
2021/04/12 12:28:12;;;;;;;0.65;0.20;;;12.60;88.40;;;;;;5043591;28;20097;-72
2021/04/12 12:30:51;;;;;;;0.20;0.20;;;12.30;84.30;;;;;;5043426;28;20135;-71
2021/04/12 12:33:53;;;;;;;1.13;0.25;;;12.00;83.10;;;;;;5043571;28;20029;-73
2021/04/12 12:36:24;;;;;;;0.20;0.13;;;12.30;85.20;;;;;;5041438;28;20055;-74
2021/04/12 12:39:02;;;;;;;0.32;0.20;;;12.70;87.40;;;;;;5043026;28;20064;-75
2021/04/12 12:41:41;;;;;;;0.30;0.13;;;12.90;80.60;;;;;;5041449;28;20474;-75
2021/04/12 12:44:11;;;;;;;2.00;0.30;;;13.00;83.40;;;;;;5042453;28;20034;-72
2021/04/12 12:46:39;;;;;;;1.42;0.40;;;13.20;85.40;;;;;;5042753;28;20025;-71
2021/04/12 12:49:17;;;;;;;0.20;0.08;;;13.30;83.90;;;;;;5042850;28;20052;-72
2021/04/12 12:51:51;;;;;;;4.03;0.57;;;12.50;85.90;;;;;;5042507;28;20025;-75
2021/04/12 12:54:29;;;;;;;0.75;0.30;;;12.00;87.70;;;;;;5041600;28;20036;-73
2021/04/12 12:57:21;;;;;;;0.70;0.25;;;11.20;90.90;;;;;;5042832;28;20060;-73
2021/04/12 12:59:51;;;;;;;4.00;0.65;;;10.50;94.70;;;;;;5049263;28;20041;-75
2021/04/12 13:02:24;;;;;;;1.13;0.50;;;10.20;97.50;;;;;;5043036;28;20068;-75
2021/04/12 13:05:17;;;;;;;1.63;0.55;;;9.80;99.90;;;;;;5041919;28;20509;-72
2021/04/12 13:07:44;;;;;;;0.60;0.43;;;9.60;99.90;;;;;;5041606;28;20390;-74
2021/04/12 13:10:25;;;;;;;1.05;0.50;;;9.10;99.90;;;;;;5042662;28;20474;-75
2021/04/12 13:12:53;;;;;;;2.63;0.77;;;9.00;99.90;;;;;;5042820;28;20029;-74
2021/04/12 13:15:45;;;;;;;3.50;0.82;;;9.20;99.90;;;;;;5042962;28;20021;-73
2021/04/12 13:18:27;;;;;;;1.38;0.68;;;9.80;99.90;;;;;;5044649;28;20033;-73
2021/04/12 13:21:05;;;;;;;1.98;0.57;;;10.80;99.90;;;;;;5043523;28;20031;-74
2021/04/12 13:23:43;;;;;;;1.35;0.40;;;11.50;99.90;;;;;;5041698;28;20105;-72
2021/04/12 13:26:27;;;;;;;2.20;0.77;;;11.50;99.90;;;;;;5042823;28;20049;-74
2021/04/12 13:28:55;;;;;;;1.00;0.75;;;11.20;99.90;;;;;;5043433;28;20053;-74
2021/04/12 13:31:36;;;;;;;0.20;0.20;;;11.10;99.90;;;;;;5041764;28;20037;-72
2021/04/12 13:34:10;;;;;;;0.95;0.40;;;10.60;99.90;;;;;;5043031;28;20022;-72
2021/04/12 13:36:41;;;;;;;2.28;0.70;;;10.70;99.90;;;;;;5042964;28;20029;-74
2021/04/12 13:39:18;;;;;;;0.32;0.30;;;11.00;99.90;;;;;;5043024;28;20032;-74
2021/04/12 13:41:47;;;;;;;3.90;0.88;;;11.60;99.90;;;;;;5041941;28;20516;-74
2021/04/12 13:44:18;;;;;;;1.33;0.35;;;12.20;99.20;;;;;;5042790;28;20104;-73
2021/04/12 13:47:07;;;;;;;1.00;0.38;;;12.90;98.80;;;;;;5043042;28;20037;-73
2021/04/12 13:49:43;;;;;;;0.68;0.30;;;13.10;92.30;;;;;;5045921;28;20080;-74
2021/04/12 13:52:14;;;;;;;0.80;0.50;;;13.60;93.40;;;;;;5045255;28;20056;-75
2021/04/12 13:54:50;;;;;;;0.20;0.20;;;14.00;95.30;;;;;;5046326;28;20033;-74
2021/04/12 13:57:19;;;;;;;0.65;0.40;;;14.40;92.50;;;;;;5046616;28;20018;-74
2021/04/12 13:59:53;;;;;;;1.17;0.47;;;14.60;93.10;;;;;;5051613;28;20040;-75
2021/04/12 14:02:29;;;;;;;0.87;0.33;;;14.60;93.40;;;;;;5035091;28;20026;-74
2021/04/12 14:05:01;;;;;;;0.30;0.30;;;14.00;92.40;;;;;;5056043;28;20381;-73
2021/04/12 14:07:49;;;;;;;1.02;0.47;;;13.40;93.60;;;;;;5058863;28;20087;-74
2021/04/12 14:10:28;;;;;;;0.70;0.40;;;12.30;95.10;;;;;;5045334;28;20040;-74
2021/04/12 14:13:11;;;;;;;0.70;0.35;;;11.60;98.20;;;;;;5056713;28;20064;-74
2021/04/12 14:16:01;;;;;;;0.17;0.17;;;10.90;99.90;;;;;;5055277;28;20034;-74
2021/04/12 14:18:43;;;;;;;7.78;0.50;;;10.10;99.90;;;;;;5059892;28;20079;-72
2021/04/12 14:21:17;;;;;;;0.70;0.50;;;9.60;99.90;;;;;;5053140;28;20510;-74
2021/04/12 14:24:06;;;;;;;0.55;0.30;;;9.40;99.90;;;;;;5054532;28;20045;-72
2021/04/12 14:26:48;;;;;;;1.38;0.55;;;9.20;99.90;;;;;;5047065;28;20055;-74
2021/04/12 14:29:35;;;;;;;0.13;0.13;;;9.00;99.90;;;;;;5062951;28;20836;-73
2021/04/12 14:32:13;;;;;;;0.60;0.30;;;8.80;99.90;;;;;;5065681;28;20071;-73
2021/04/12 14:34:47;;;;;;;0.75;0.40;;;8.70;99.90;;;;;;5057452;28;20029;-74